sensor_id;sensor_type;location;lat;lon;timestamp;temperature;humidity
44190;DHT22;29856;52.144;5.430;2022-07-12T00:00:44;19.20;99.90
44190;DHT22;29856;52.144;5.430;2022-07-12T00:03:10;19.30;99.90
44190;DHT22;29856;52.144;5.430;2022-07-12T00:05:56;19.20;99.90
44190;DHT22;29856;52.144;5.430;2022-07-12T00:11:46;19.10;99.90
44190;DHT22;29856;52.144;5.430;2022-07-12T00:14:12;19.10;99.90
44190;DHT22;29856;52.144;5.430;2022-07-12T00:16:47;19.10;99.90
44190;DHT22;29856;52.144;5.430;2022-07-12T00:19:15;19.00;99.90
44190;DHT22;29856;52.144;5.430;2022-07-12T00:24:17;19.10;99.90
44190;DHT22;29856;52.144;5.430;2022-07-12T00:26:52;19.10;99.90
44190;DHT22;29856;52.144;5.430;2022-07-12T00:29:18;19.00;99.90
44190;DHT22;29856;52.144;5.430;2022-07-12T00:31:46;19.00;99.90
44190;DHT22;29856;52.144;5.430;2022-07-12T00:34:14;19.00;99.90
44190;DHT22;29856;52.144;5.430;2022-07-12T00:36:40;18.90;99.90
44190;DHT22;29856;52.144;5.430;2022-07-12T00:39:05;18.70;99.90
44190;DHT22;29856;52.144;5.430;2022-07-12T00:41:31;18.50;99.90
44190;DHT22;29856;52.144;5.430;2022-07-12T00:43:56;18.30;99.90
44190;DHT22;29856;52.144;5.430;2022-07-12T00:46:23;18.30;99.90
44190;DHT22;29856;52.144;5.430;2022-07-12T00:48:48;18.30;99.90
44190;DHT22;29856;52.144;5.430;2022-07-12T00:51:17;18.30;99.90
44190;DHT22;29856;52.144;5.430;2022-07-12T00:53:43;18.20;99.90
44190;DHT22;29856;52.144;5.430;2022-07-12T00:56:09;18.20;99.90
44190;DHT22;29856;52.144;5.430;2022-07-12T00:58:35;18.20;99.90
44190;DHT22;29856;52.144;5.430;2022-07-12T01:01:01;18.10;99.90
44190;DHT22;29856;52.144;5.430;2022-07-12T01:03:26;18.00;99.90
44190;DHT22;29856;52.144;5.430;2022-07-12T01:05:52;17.80;99.90
44190;DHT22;29856;52.144;5.430;2022-07-12T01:08:18;17.50;99.90
44190;DHT22;29856;52.144;5.430;2022-07-12T01:10:44;17.30;99.90
44190;DHT22;29856;52.144;5.430;2022-07-12T01:13:09;17.20;99.90
44190;DHT22;29856;52.144;5.430;2022-07-12T01:15:36;17.20;99.90
44190;DHT22;29856;52.144;5.430;2022-07-12T01:18:03;17.30;99.90
44190;DHT22;29856;52.144;5.430;2022-07-12T01:20:29;17.40;99.90
44190;DHT22;29856;52.144;5.430;2022-07-12T01:22:56;17.50;99.90
44190;DHT22;29856;52.144;5.430;2022-07-12T01:25:21;17.60;99.90
44190;DHT22;29856;52.144;5.430;2022-07-12T01:27:47;17.70;99.90
44190;DHT22;29856;52.144;5.430;2022-07-12T01:30:13;17.70;99.90
44190;DHT22;29856;52.144;5.430;2022-07-12T01:32:39;17.50;99.90
44190;DHT22;29856;52.144;5.430;2022-07-12T01:35:05;17.30;99.90
44190;DHT22;29856;52.144;5.430;2022-07-12T01:37:35;17.30;99.90
44190;DHT22;29856;52.144;5.430;2022-07-12T01:40:02;17.30;99.90
44190;DHT22;29856;52.144;5.430;2022-07-12T01:42:29;17.30;99.90
44190;DHT22;29856;52.144;5.430;2022-07-12T01:44:58;17.30;99.90
44190;DHT22;29856;52.144;5.430;2022-07-12T01:47:26;17.30;99.90
44190;DHT22;29856;52.144;5.430;2022-07-12T01:49:52;17.40;99.90
44190;DHT22;29856;52.144;5.430;2022-07-12T01:52:17;17.30;99.90
44190;DHT22;29856;52.144;5.430;2022-07-12T01:54:44;17.20;99.90
44190;DHT22;29856;52.144;5.430;2022-07-12T01:57:10;17.10;99.90
44190;DHT22;29856;52.144;5.430;2022-07-12T01:59:36;17.10;99.90
44190;DHT22;29856;52.144;5.430;2022-07-12T02:02:02;17.00;99.90
44190;DHT22;29856;52.144;5.430;2022-07-12T02:04:28;17.00;99.90
44190;DHT22;29856;52.144;5.430;2022-07-12T02:06:54;16.80;99.90
44190;DHT22;29856;52.144;5.430;2022-07-12T02:09:20;16.70;99.90
44190;DHT22;29856;52.144;5.430;2022-07-12T02:11:46;16.60;99.90
44190;DHT22;29856;52.144;5.430;2022-07-12T02:14:12;16.60;99.90
44190;DHT22;29856;52.144;5.430;2022-07-12T02:16:37;16.60;99.90
44190;DHT22;29856;52.144;5.430;2022-07-12T02:19:03;16.60;99.90
44190;DHT22;29856;52.144;5.430;2022-07-12T02:21:28;16.50;99.90
44190;DHT22;29856;52.144;5.430;2022-07-12T02:23:54;16.50;99.90
44190;DHT22;29856;52.144;5.430;2022-07-12T02:26:23;16.40;99.90
44190;DHT22;29856;52.144;5.430;2022-07-12T02:28:48;16.30;99.90
44190;DHT22;29856;52.144;5.430;2022-07-12T02:31:14;16.40;99.90
44190;DHT22;29856;52.144;5.430;2022-07-12T02:33:42;16.40;99.90
44190;DHT22;29856;52.144;5.430;2022-07-12T02:36:07;16.40;99.90
44190;DHT22;29856;52.144;5.430;2022-07-12T02:38:33;16.40;99.90
44190;DHT22;29856;52.144;5.430;2022-07-12T02:40:59;16.30;99.90
44190;DHT22;29856;52.144;5.430;2022-07-12T02:43:26;16.20;99.90
44190;DHT22;29856;52.144;5.430;2022-07-12T02:45:53;16.20;99.90
44190;DHT22;29856;52.144;5.430;2022-07-12T02:48:19;16.10;99.90
44190;DHT22;29856;52.144;5.430;2022-07-12T02:50:45;16.20;99.90
44190;DHT22;29856;52.144;5.430;2022-07-12T02:53:11;16.10;99.90
44190;DHT22;29856;52.144;5.430;2022-07-12T02:55:37;16.10;99.90
44190;DHT22;29856;52.144;5.430;2022-07-12T02:58:04;16.10;99.90
44190;DHT22;29856;52.144;5.430;2022-07-12T03:00:30;16.20;99.90
44190;DHT22;29856;52.144;5.430;2022-07-12T03:02:55;16.20;99.90
44190;DHT22;29856;52.144;5.430;2022-07-12T03:05:21;16.20;99.90
44190;DHT22;29856;52.144;5.430;2022-07-12T03:08:16;16.20;99.90
44190;DHT22;29856;52.144;5.430;2022-07-12T03:10:42;16.30;99.90
44190;DHT22;29856;52.144;5.430;2022-07-12T03:13:07;16.30;99.90
44190;DHT22;29856;52.144;5.430;2022-07-12T03:15:33;16.30;99.90
44190;DHT22;29856;52.144;5.430;2022-07-12T03:18:00;16.30;99.90
44190;DHT22;29856;52.144;5.430;2022-07-12T03:20:27;16.30;99.90
44190;DHT22;29856;52.144;5.430;2022-07-12T03:22:53;16.30;99.90
44190;DHT22;29856;52.144;5.430;2022-07-12T03:25:19;16.40;99.90
44190;DHT22;29856;52.144;5.430;2022-07-12T03:27:45;16.40;99.90
44190;DHT22;29856;52.144;5.430;2022-07-12T03:30:20;16.30;99.90
44190;DHT22;29856;52.144;5.430;2022-07-12T03:32:45;16.30;99.90
44190;DHT22;29856;52.144;5.430;2022-07-12T03:35:11;16.10;99.90
44190;DHT22;29856;52.144;5.430;2022-07-12T03:37:55;15.90;99.90
44190;DHT22;29856;52.144;5.430;2022-07-12T03:40:24;15.80;99.90
44190;DHT22;29856;52.144;5.430;2022-07-12T03:42:54;15.80;99.90
44190;DHT22;29856;52.144;5.430;2022-07-12T03:45:20;15.70;99.90
44190;DHT22;29856;52.144;5.430;2022-07-12T03:48:24;15.60;99.90
44190;DHT22;29856;52.144;5.430;2022-07-12T03:50:50;15.40;99.90
44190;DHT22;29856;52.144;5.430;2022-07-12T03:53:15;15.50;99.90
44190;DHT22;29856;52.144;5.430;2022-07-12T03:55:50;15.40;99.90
44190;DHT22;29856;52.144;5.430;2022-07-12T03:58:16;15.40;99.90
44190;DHT22;29856;52.144;5.430;2022-07-12T04:00:42;15.50;99.90
44190;DHT22;29856;52.144;5.430;2022-07-12T04:03:07;15.60;99.90
44190;DHT22;29856;52.144;5.430;2022-07-12T04:05:33;15.70;99.90
44190;DHT22;29856;52.144;5.430;2022-07-12T04:07:58;15.70;99.90
44190;DHT22;29856;52.144;5.430;2022-07-12T04:16:47;15.70;99.90
44190;DHT22;29856;52.144;5.430;2022-07-12T04:24:53;15.90;99.90
44190;DHT22;29856;52.144;5.430;2022-07-12T04:27:18;15.90;99.90
44190;DHT22;29856;52.144;5.430;2022-07-12T04:29:44;16.00;99.90
44190;DHT22;29856;52.144;5.430;2022-07-12T04:32:09;15.90;99.90
44190;DHT22;29856;52.144;5.430;2022-07-12T04:34:35;15.90;99.90
44190;DHT22;29856;52.144;5.430;2022-07-12T04:37:00;15.90;99.90
44190;DHT22;29856;52.144;5.430;2022-07-12T04:39:26;16.00;99.90
44190;DHT22;29856;52.144;5.430;2022-07-12T04:41:51;16.00;99.90
44190;DHT22;29856;52.144;5.430;2022-07-12T04:44:17;16.10;99.90
44190;DHT22;29856;52.144;5.430;2022-07-12T04:46:42;16.20;99.90
44190;DHT22;29856;52.144;5.430;2022-07-12T04:49:08;16.20;99.90
44190;DHT22;29856;52.144;5.430;2022-07-12T04:51:34;16.20;99.90
44190;DHT22;29856;52.144;5.430;2022-07-12T04:53:59;16.40;99.90
44190;DHT22;29856;52.144;5.430;2022-07-12T04:56:25;16.40;99.90
44190;DHT22;29856;52.144;5.430;2022-07-12T04:58:50;16.50;99.90
44190;DHT22;29856;52.144;5.430;2022-07-12T05:01:16;16.80;99.90
44190;DHT22;29856;52.144;5.430;2022-07-12T05:03:42;16.90;99.90
44190;DHT22;29856;52.144;5.430;2022-07-12T05:06:08;17.10;99.90
44190;DHT22;29856;52.144;5.430;2022-07-12T05:08:33;17.20;99.90
44190;DHT22;29856;52.144;5.430;2022-07-12T05:10:59;17.30;99.90
44190;DHT22;29856;52.144;5.430;2022-07-12T05:13:24;17.40;99.90
44190;DHT22;29856;52.144;5.430;2022-07-12T05:15:50;17.40;99.90
44190;DHT22;29856;52.144;5.430;2022-07-12T05:18:15;17.60;99.90
44190;DHT22;29856;52.144;5.430;2022-07-12T05:20:41;17.70;99.90
44190;DHT22;29856;52.144;5.430;2022-07-12T05:23:06;17.80;99.90
44190;DHT22;29856;52.144;5.430;2022-07-12T05:25:32;18.00;99.90
44190;DHT22;29856;52.144;5.430;2022-07-12T05:27:57;18.10;99.90
44190;DHT22;29856;52.144;5.430;2022-07-12T05:30:23;18.30;99.90
44190;DHT22;29856;52.144;5.430;2022-07-12T05:32:48;18.40;99.90
44190;DHT22;29856;52.144;5.430;2022-07-12T05:35:14;18.50;99.90
44190;DHT22;29856;52.144;5.430;2022-07-12T05:37:39;18.80;99.90
44190;DHT22;29856;52.144;5.430;2022-07-12T05:40:05;19.00;99.90
44190;DHT22;29856;52.144;5.430;2022-07-12T05:42:31;19.00;99.90
44190;DHT22;29856;52.144;5.430;2022-07-12T05:44:57;19.10;99.90
44190;DHT22;29856;52.144;5.430;2022-07-12T05:47:22;19.20;99.90
44190;DHT22;29856;52.144;5.430;2022-07-12T05:49:48;19.20;99.90
44190;DHT22;29856;52.144;5.430;2022-07-12T05:52:35;19.30;99.90
44190;DHT22;29856;52.144;5.430;2022-07-12T05:55:01;19.30;99.90
44190;DHT22;29856;52.144;5.430;2022-07-12T05:57:27;19.50;99.90
44190;DHT22;29856;52.144;5.430;2022-07-12T05:59:52;19.50;99.90
44190;DHT22;29856;52.144;5.430;2022-07-12T06:02:17;19.70;99.90
44190;DHT22;29856;52.144;5.430;2022-07-12T06:04:43;19.90;99.90
44190;DHT22;29856;52.144;5.430;2022-07-12T06:07:08;20.00;99.90
44190;DHT22;29856;52.144;5.430;2022-07-12T06:09:34;20.10;99.90
44190;DHT22;29856;52.144;5.430;2022-07-12T06:11:59;20.00;99.90
44190;DHT22;29856;52.144;5.430;2022-07-12T06:14:25;20.00;99.90
44190;DHT22;29856;52.144;5.430;2022-07-12T06:16:50;20.00;99.90
44190;DHT22;29856;52.144;5.430;2022-07-12T06:19:16;20.30;99.90
44190;DHT22;29856;52.144;5.430;2022-07-12T06:21:41;20.40;99.90
44190;DHT22;29856;52.144;5.430;2022-07-12T06:24:06;20.70;99.90
44190;DHT22;29856;52.144;5.430;2022-07-12T06:26:32;20.80;99.90
44190;DHT22;29856;52.144;5.430;2022-07-12T06:28:57;21.10;99.90
44190;DHT22;29856;52.144;5.430;2022-07-12T06:31:23;21.20;99.90
44190;DHT22;29856;52.144;5.430;2022-07-12T06:33:49;21.30;99.90
44190;DHT22;29856;52.144;5.430;2022-07-12T06:36:14;21.50;99.90
44190;DHT22;29856;52.144;5.430;2022-07-12T06:38:39;21.60;99.90
44190;DHT22;29856;52.144;5.430;2022-07-12T06:41:05;21.80;99.90
44190;DHT22;29856;52.144;5.430;2022-07-12T06:43:30;22.00;99.90
44190;DHT22;29856;52.144;5.430;2022-07-12T06:45:56;22.20;99.90
44190;DHT22;29856;52.144;5.430;2022-07-12T06:48:21;22.20;99.90
44190;DHT22;29856;52.144;5.430;2022-07-12T06:50:47;22.30;99.90
44190;DHT22;29856;52.144;5.430;2022-07-12T06:53:12;21.90;99.90
44190;DHT22;29856;52.144;5.430;2022-07-12T06:55:38;22.00;99.90
44190;DHT22;29856;52.144;5.430;2022-07-12T06:58:03;22.10;99.90
44190;DHT22;29856;52.144;5.430;2022-07-12T07:00:29;22.10;99.90
44190;DHT22;29856;52.144;5.430;2022-07-12T07:02:54;22.10;99.90
44190;DHT22;29856;52.144;5.430;2022-07-12T07:05:19;22.20;99.90
44190;DHT22;29856;52.144;5.430;2022-07-12T07:07:45;22.30;99.90
44190;DHT22;29856;52.144;5.430;2022-07-12T07:10:11;22.30;99.90
44190;DHT22;29856;52.144;5.430;2022-07-12T07:12:36;22.30;99.90
44190;DHT22;29856;52.144;5.430;2022-07-12T07:15:02;22.40;99.90
44190;DHT22;29856;52.144;5.430;2022-07-12T07:17:27;22.30;99.90
44190;DHT22;29856;52.144;5.430;2022-07-12T07:19:53;22.30;99.90
44190;DHT22;29856;52.144;5.430;2022-07-12T07:22:18;22.40;99.90
44190;DHT22;29856;52.144;5.430;2022-07-12T07:24:43;22.40;99.90
44190;DHT22;29856;52.144;5.430;2022-07-12T07:27:09;22.40;99.90
44190;DHT22;29856;52.144;5.430;2022-07-12T07:29:35;22.60;99.90
44190;DHT22;29856;52.144;5.430;2022-07-12T07:32:00;22.80;99.90
44190;DHT22;29856;52.144;5.430;2022-07-12T07:34:26;23.00;99.90
44190;DHT22;29856;52.144;5.430;2022-07-12T07:36:52;23.20;99.90
44190;DHT22;29856;52.144;5.430;2022-07-12T07:39:17;23.40;99.90
44190;DHT22;29856;52.144;5.430;2022-07-12T07:41:43;23.60;99.90
44190;DHT22;29856;52.144;5.430;2022-07-12T07:44:09;23.80;99.90
44190;DHT22;29856;52.144;5.430;2022-07-12T07:46:34;23.90;99.90
44190;DHT22;29856;52.144;5.430;2022-07-12T07:49:00;23.90;99.90
44190;DHT22;29856;52.144;5.430;2022-07-12T07:51:25;24.00;99.90
44190;DHT22;29856;52.144;5.430;2022-07-12T07:53:51;24.10;99.90
44190;DHT22;29856;52.144;5.430;2022-07-12T07:56:16;24.20;99.90
44190;DHT22;29856;52.144;5.430;2022-07-12T07:58:42;24.40;99.90
44190;DHT22;29856;52.144;5.430;2022-07-12T08:01:07;24.50;99.90
44190;DHT22;29856;52.144;5.430;2022-07-12T08:03:33;24.50;99.90
44190;DHT22;29856;52.144;5.430;2022-07-12T08:05:58;24.50;99.90
44190;DHT22;29856;52.144;5.430;2022-07-12T08:08:24;24.50;99.90
44190;DHT22;29856;52.144;5.430;2022-07-12T08:10:53;24.50;99.90
44190;DHT22;29856;52.144;5.430;2022-07-12T08:13:18;24.50;99.90
44190;DHT22;29856;52.144;5.430;2022-07-12T08:15:44;24.60;99.90
44190;DHT22;29856;52.144;5.430;2022-07-12T08:18:10;24.70;99.90
44190;DHT22;29856;52.144;5.430;2022-07-12T08:20:35;24.70;99.90
44190;DHT22;29856;52.144;5.430;2022-07-12T08:23:01;24.70;99.90
44190;DHT22;29856;52.144;5.430;2022-07-12T08:25:26;24.80;99.90
44190;DHT22;29856;52.144;5.430;2022-07-12T08:27:52;24.80;99.90
44190;DHT22;29856;52.144;5.430;2022-07-12T08:30:17;24.90;99.90
44190;DHT22;29856;52.144;5.430;2022-07-12T08:32:44;25.00;99.90
44190;DHT22;29856;52.144;5.430;2022-07-12T08:35:10;25.10;99.90
44190;DHT22;29856;52.144;5.430;2022-07-12T08:37:35;25.20;99.90
44190;DHT22;29856;52.144;5.430;2022-07-12T08:40:01;25.40;99.90
44190;DHT22;29856;52.144;5.430;2022-07-12T08:42:26;25.30;99.90
44190;DHT22;29856;52.144;5.430;2022-07-12T08:44:55;25.50;99.90
44190;DHT22;29856;52.144;5.430;2022-07-12T08:47:21;25.60;99.90
44190;DHT22;29856;52.144;5.430;2022-07-12T08:50:16;25.50;99.90
44190;DHT22;29856;52.144;5.430;2022-07-12T08:52:47;25.70;99.90
44190;DHT22;29856;52.144;5.430;2022-07-12T08:55:35;25.70;99.90
44190;DHT22;29856;52.144;5.430;2022-07-12T08:58:05;25.80;99.90
44190;DHT22;29856;52.144;5.430;2022-07-12T09:00:39;25.80;99.90
44190;DHT22;29856;52.144;5.430;2022-07-12T09:03:05;26.00;99.90
44190;DHT22;29856;52.144;5.430;2022-07-12T09:05:32;26.10;99.90
44190;DHT22;29856;52.144;5.430;2022-07-12T09:08:08;26.30;99.90
44190;DHT22;29856;52.144;5.430;2022-07-12T09:10:56;26.40;99.90
44190;DHT22;29856;52.144;5.430;2022-07-12T09:13:20;26.50;99.90
44190;DHT22;29856;52.144;5.430;2022-07-12T09:15:46;26.80;99.90
44190;DHT22;29856;52.144;5.430;2022-07-12T09:18:12;27.00;99.90
44190;DHT22;29856;52.144;5.430;2022-07-12T09:20:37;27.00;99.90
44190;DHT22;29856;52.144;5.430;2022-07-12T09:23:06;27.10;99.90
44190;DHT22;29856;52.144;5.430;2022-07-12T09:25:32;27.30;99.90
44190;DHT22;29856;52.144;5.430;2022-07-12T09:27:59;27.40;99.90
44190;DHT22;29856;52.144;5.430;2022-07-12T09:30:28;27.50;99.90
44190;DHT22;29856;52.144;5.430;2022-07-12T09:32:58;27.60;99.90
44190;DHT22;29856;52.144;5.430;2022-07-12T09:35:24;27.50;99.90
44190;DHT22;29856;52.144;5.430;2022-07-12T09:37:49;27.50;99.90
44190;DHT22;29856;52.144;5.430;2022-07-12T09:40:15;27.70;99.90
44190;DHT22;29856;52.144;5.430;2022-07-12T09:42:41;27.50;99.90
44190;DHT22;29856;52.144;5.430;2022-07-12T09:45:08;27.60;99.90
44190;DHT22;29856;52.144;5.430;2022-07-12T09:47:35;27.70;99.90
44190;DHT22;29856;52.144;5.430;2022-07-12T09:50:00;27.70;99.90
44190;DHT22;29856;52.144;5.430;2022-07-12T09:52:27;27.70;99.90
44190;DHT22;29856;52.144;5.430;2022-07-12T09:54:55;27.70;99.90
44190;DHT22;29856;52.144;5.430;2022-07-12T09:57:27;27.80;99.90
44190;DHT22;29856;52.144;5.430;2022-07-12T09:59:54;28.00;99.90
44190;DHT22;29856;52.144;5.430;2022-07-12T10:02:25;28.00;99.90
44190;DHT22;29856;52.144;5.430;2022-07-12T10:04:51;28.10;99.90
44190;DHT22;29856;52.144;5.430;2022-07-12T10:07:17;28.30;99.90
44190;DHT22;29856;52.144;5.430;2022-07-12T10:09:45;28.40;99.90
44190;DHT22;29856;52.144;5.430;2022-07-12T10:12:15;28.50;99.90
44190;DHT22;29856;52.144;5.430;2022-07-12T10:14:41;28.60;99.90
44190;DHT22;29856;52.144;5.430;2022-07-12T10:17:08;28.70;99.90
44190;DHT22;29856;52.144;5.430;2022-07-12T10:19:34;28.80;99.90
44190;DHT22;29856;52.144;5.430;2022-07-12T10:22:00;28.90;99.80
44190;DHT22;29856;52.144;5.430;2022-07-12T10:29:45;28.90;99.50
44190;DHT22;29856;52.144;5.430;2022-07-12T10:34:59;29.10;99.00
44190;DHT22;29856;52.144;5.430;2022-07-12T10:37:25;29.20;98.70
44190;DHT22;29856;52.144;5.430;2022-07-12T10:42:35;29.50;97.30
44190;DHT22;29856;52.144;5.430;2022-07-12T10:45:16;29.50;97.40
44190;DHT22;29856;52.144;5.430;2022-07-12T10:47:55;29.50;97.50
44190;DHT22;29856;52.144;5.430;2022-07-12T10:53:26;29.10;97.20
44190;DHT22;29856;52.144;5.430;2022-07-12T11:01:19;29.20;98.20
44190;DHT22;29856;52.144;5.430;2022-07-12T11:03:49;29.20;98.20
44190;DHT22;29856;52.144;5.430;2022-07-12T11:06:23;29.50;97.50
44190;DHT22;29856;52.144;5.430;2022-07-12T11:08:58;29.60;97.10
44190;DHT22;29856;52.144;5.430;2022-07-12T11:11:25;29.80;97.60
44190;DHT22;29856;52.144;5.430;2022-07-12T11:13:51;29.80;97.60
44190;DHT22;29856;52.144;5.430;2022-07-12T11:16:16;29.80;97.30
44190;DHT22;29856;52.144;5.430;2022-07-12T11:18:42;29.90;97.30
44190;DHT22;29856;52.144;5.430;2022-07-12T11:21:08;30.00;97.60
44190;DHT22;29856;52.144;5.430;2022-07-12T11:23:34;29.80;97.20
44190;DHT22;29856;52.144;5.430;2022-07-12T11:26:02;29.60;98.00
44190;DHT22;29856;52.144;5.430;2022-07-12T11:28:28;29.90;97.90
44190;DHT22;29856;52.144;5.430;2022-07-12T11:31:09;30.30;97.50
44190;DHT22;29856;52.144;5.430;2022-07-12T11:33:39;30.40;97.60
44190;DHT22;29856;52.144;5.430;2022-07-12T11:36:07;30.50;97.20
44190;DHT22;29856;52.144;5.430;2022-07-12T11:38:34;30.50;97.60
44190;DHT22;29856;52.144;5.430;2022-07-12T11:41:01;30.50;96.70
44190;DHT22;29856;52.144;5.430;2022-07-12T11:43:28;30.50;96.50
44190;DHT22;29856;52.144;5.430;2022-07-12T11:45:54;30.60;96.70
44190;DHT22;29856;52.144;5.430;2022-07-12T11:48:21;30.60;96.90
44190;DHT22;29856;52.144;5.430;2022-07-12T11:50:47;30.70;97.10
44190;DHT22;29856;52.144;5.430;2022-07-12T11:53:21;31.00;96.70
44190;DHT22;29856;52.144;5.430;2022-07-12T11:55:50;30.90;95.50
44190;DHT22;29856;52.144;5.430;2022-07-12T11:58:17;30.90;96.40
44190;DHT22;29856;52.144;5.430;2022-07-12T12:00:43;31.10;96.00
44190;DHT22;29856;52.144;5.430;2022-07-12T12:03:10;31.10;96.00
44190;DHT22;29856;52.144;5.430;2022-07-12T12:05:36;31.20;96.40
44190;DHT22;29856;52.144;5.430;2022-07-12T12:08:02;31.20;96.20
44190;DHT22;29856;52.144;5.430;2022-07-12T12:10:28;31.40;96.00
44190;DHT22;29856;52.144;5.430;2022-07-12T12:12:58;31.20;96.00
44190;DHT22;29856;52.144;5.430;2022-07-12T12:15:31;31.30;95.40
44190;DHT22;29856;52.144;5.430;2022-07-12T12:20:27;31.20;94.20
44190;DHT22;29856;52.144;5.430;2022-07-12T12:22:58;31.30;92.70
44190;DHT22;29856;52.144;5.430;2022-07-12T12:25:24;31.30;92.90
44190;DHT22;29856;52.144;5.430;2022-07-12T12:28:01;31.50;92.80
44190;DHT22;29856;52.144;5.430;2022-07-12T12:30:29;31.50;92.40
44190;DHT22;29856;52.144;5.430;2022-07-12T12:32:57;31.70;93.20
44190;DHT22;29856;52.144;5.430;2022-07-12T12:35:31;31.80;93.30
44190;DHT22;29856;52.144;5.430;2022-07-12T12:37:58;31.80;93.20
44190;DHT22;29856;52.144;5.430;2022-07-12T12:40:27;31.60;93.30
44190;DHT22;29856;52.144;5.430;2022-07-12T12:43:04;31.90;93.40
44190;DHT22;29856;52.144;5.430;2022-07-12T12:45:30;32.10;92.70
44190;DHT22;29856;52.144;5.430;2022-07-12T12:48:00;32.20;93.00
44190;DHT22;29856;52.144;5.430;2022-07-12T12:50:42;32.20;92.60
44190;DHT22;29856;52.144;5.430;2022-07-12T12:53:24;32.40;91.70
44190;DHT22;29856;52.144;5.430;2022-07-12T12:55:54;32.40;92.10
44190;DHT22;29856;52.144;5.430;2022-07-12T12:58:21;32.50;91.90
44190;DHT22;29856;52.144;5.430;2022-07-12T13:00:49;32.40;92.30
44190;DHT22;29856;52.144;5.430;2022-07-12T13:03:17;32.40;92.10
44190;DHT22;29856;52.144;5.430;2022-07-12T13:05:44;32.50;92.20
44190;DHT22;29856;52.144;5.430;2022-07-12T13:08:11;32.70;92.00
44190;DHT22;29856;52.144;5.430;2022-07-12T13:10:37;32.70;91.40
44190;DHT22;29856;52.144;5.430;2022-07-12T13:13:04;32.50;92.00
44190;DHT22;29856;52.144;5.430;2022-07-12T13:15:30;32.40;91.90
44190;DHT22;29856;52.144;5.430;2022-07-12T13:17:56;32.50;91.90
44190;DHT22;29856;52.144;5.430;2022-07-12T13:20:23;32.50;92.00
44190;DHT22;29856;52.144;5.430;2022-07-12T13:22:48;32.30;91.90
44190;DHT22;29856;52.144;5.430;2022-07-12T13:25:15;32.30;92.20
44190;DHT22;29856;52.144;5.430;2022-07-12T13:27:41;32.30;91.90
44190;DHT22;29856;52.144;5.430;2022-07-12T13:30:08;32.20;92.10
44190;DHT22;29856;52.144;5.430;2022-07-12T13:32:34;32.30;92.00
44190;DHT22;29856;52.144;5.430;2022-07-12T13:35:01;32.50;92.10
44190;DHT22;29856;52.144;5.430;2022-07-12T13:37:27;32.20;92.40
44190;DHT22;29856;52.144;5.430;2022-07-12T13:39:52;32.10;92.70
44190;DHT22;29856;52.144;5.430;2022-07-12T13:42:18;32.20;92.40
44190;DHT22;29856;52.144;5.430;2022-07-12T13:44:43;32.00;92.50
44190;DHT22;29856;52.144;5.430;2022-07-12T13:47:09;32.20;92.30
44190;DHT22;29856;52.144;5.430;2022-07-12T13:49:34;32.20;92.40
44190;DHT22;29856;52.144;5.430;2022-07-12T13:52:00;32.30;92.10
44190;DHT22;29856;52.144;5.430;2022-07-12T13:54:25;32.10;91.60
44190;DHT22;29856;52.144;5.430;2022-07-12T13:56:51;32.20;91.50
44190;DHT22;29856;52.144;5.430;2022-07-12T13:59:16;32.30;91.60
44190;DHT22;29856;52.144;5.430;2022-07-12T14:01:41;32.30;91.50
44190;DHT22;29856;52.144;5.430;2022-07-12T14:04:07;32.50;91.60
44190;DHT22;29856;52.144;5.430;2022-07-12T14:06:32;32.50;91.70
44190;DHT22;29856;52.144;5.430;2022-07-12T14:08:58;32.60;91.50
44190;DHT22;29856;52.144;5.430;2022-07-12T14:11:23;32.60;91.80
44190;DHT22;29856;52.144;5.430;2022-07-12T14:13:50;32.50;91.30
44190;DHT22;29856;52.144;5.430;2022-07-12T14:16:15;32.50;91.70
44190;DHT22;29856;52.144;5.430;2022-07-12T14:18:41;32.40;91.50
44190;DHT22;29856;52.144;5.430;2022-07-12T14:21:07;32.40;91.80
44190;DHT22;29856;52.144;5.430;2022-07-12T14:23:32;32.40;91.90
44190;DHT22;29856;52.144;5.430;2022-07-12T14:25:57;32.40;91.80
44190;DHT22;29856;52.144;5.430;2022-07-12T14:28:23;32.30;91.90
44190;DHT22;29856;52.144;5.430;2022-07-12T14:30:48;32.30;92.20
44190;DHT22;29856;52.144;5.430;2022-07-12T14:33:14;32.20;92.10
44190;DHT22;29856;52.144;5.430;2022-07-12T14:35:39;32.30;92.40
44190;DHT22;29856;52.144;5.430;2022-07-12T14:38:05;32.40;91.60
44190;DHT22;29856;52.144;5.430;2022-07-12T14:40:30;32.40;91.40
44190;DHT22;29856;52.144;5.430;2022-07-12T14:42:56;32.30;91.30
44190;DHT22;29856;52.144;5.430;2022-07-12T14:45:21;32.30;91.90
44190;DHT22;29856;52.144;5.430;2022-07-12T14:47:46;32.30;92.10
44190;DHT22;29856;52.144;5.430;2022-07-12T14:50:12;32.30;91.80
44190;DHT22;29856;52.144;5.430;2022-07-12T14:52:37;32.20;92.00
44190;DHT22;29856;52.144;5.430;2022-07-12T14:55:03;32.00;91.90
44190;DHT22;29856;52.144;5.430;2022-07-12T14:57:29;32.10;91.70
44190;DHT22;29856;52.144;5.430;2022-07-12T14:59:54;32.10;91.90
44190;DHT22;29856;52.144;5.430;2022-07-12T15:02:20;32.10;92.00
44190;DHT22;29856;52.144;5.430;2022-07-12T15:04:45;32.10;92.00
44190;DHT22;29856;52.144;5.430;2022-07-12T15:07:11;32.00;91.60
44190;DHT22;29856;52.144;5.430;2022-07-12T15:09:36;31.90;91.30
44190;DHT22;29856;52.144;5.430;2022-07-12T15:12:02;31.90;91.70
44190;DHT22;29856;52.144;5.430;2022-07-12T15:14:27;31.80;91.60
44190;DHT22;29856;52.144;5.430;2022-07-12T15:16:53;31.80;91.90
44190;DHT22;29856;52.144;5.430;2022-07-12T15:19:18;31.70;91.10
44190;DHT22;29856;52.144;5.430;2022-07-12T15:21:44;31.70;91.30
44190;DHT22;29856;52.144;5.430;2022-07-12T15:24:09;31.60;91.50
44190;DHT22;29856;52.144;5.430;2022-07-12T15:26:34;31.60;92.00
44190;DHT22;29856;52.144;5.430;2022-07-12T15:29:01;31.60;92.50
44190;DHT22;29856;52.144;5.430;2022-07-12T15:31:27;31.60;92.20
44190;DHT22;29856;52.144;5.430;2022-07-12T15:33:53;31.50;92.70
44190;DHT22;29856;52.144;5.430;2022-07-12T15:36:18;31.50;92.80
44190;DHT22;29856;52.144;5.430;2022-07-12T15:38:44;31.50;93.00
44190;DHT22;29856;52.144;5.430;2022-07-12T15:41:11;31.50;93.30
44190;DHT22;29856;52.144;5.430;2022-07-12T15:43:38;31.50;93.00
44190;DHT22;29856;52.144;5.430;2022-07-12T15:46:03;31.30;93.10
44190;DHT22;29856;52.144;5.430;2022-07-12T15:48:29;31.20;93.10
44190;DHT22;29856;52.144;5.430;2022-07-12T15:50:56;31.30;93.00
44190;DHT22;29856;52.144;5.430;2022-07-12T15:53:22;31.30;92.90
44190;DHT22;29856;52.144;5.430;2022-07-12T15:55:47;31.20;92.90
44190;DHT22;29856;52.144;5.430;2022-07-12T15:58:13;31.20;92.80
44190;DHT22;29856;52.144;5.430;2022-07-12T16:00:38;31.20;92.30
44190;DHT22;29856;52.144;5.430;2022-07-12T16:03:03;31.20;92.40
44190;DHT22;29856;52.144;5.430;2022-07-12T16:05:29;31.10;92.10
44190;DHT22;29856;52.144;5.430;2022-07-12T16:07:54;31.00;92.30